createdAt,value
2019-02-10T00:00:12.267Z,15.9
2019-02-10T00:01:13.704Z,15.9
2019-02-10T00:02:14.981Z,15.8
2019-02-10T00:03:16.313Z,15.8
2019-02-10T00:04:17.865Z,15.8
2019-02-10T00:05:19.171Z,15.8
2019-02-10T00:06:24.676Z,15.8
2019-02-10T00:07:26.361Z,15.8
2019-02-10T00:08:27.657Z,15.7
2019-02-10T00:09:28.919Z,15.7
2019-02-10T00:10:30.215Z,15.7
2019-02-10T00:11:31.629Z,15.7
2019-02-10T00:12:33.229Z,15.7
2019-02-10T00:13:34.569Z,15.7
2019-02-10T00:14:35.857Z,15.6
2019-02-10T00:15:37.142Z,15.7
2019-02-10T00:16:43.281Z,15.7
2019-02-10T00:17:44.923Z,15.7
2019-02-10T00:18:46.995Z,15.7
2019-02-10T00:19:49.622Z,15.7
2019-02-10T00:20:51.649Z,15.7
2019-02-10T00:21:58.882Z,15.7
2019-02-10T00:23:07.313Z,15.6
2019-02-10T00:24:09.373Z,15.7
2019-02-10T00:25:10.645Z,15.7
2019-02-10T00:26:11.949Z,15.6
2019-02-10T00:27:13.297Z,15.6
2019-02-10T00:28:14.651Z,15.7
2019-02-10T00:29:16.017Z,15.6
2019-02-10T00:30:17.299Z,15.6
2019-02-10T00:31:19.779Z,15.6
2019-02-10T00:32:22.789Z,15.6
2019-02-10T00:33:24.361Z,15.5
2019-02-10T00:34:25.657Z,15.5
2019-02-10T00:35:35.637Z,15.5
2019-02-10T00:36:37.101Z,15.6
2019-02-10T00:37:41.508Z,15.6
2019-02-10T00:38:48.567Z,15.7
2019-02-10T00:39:50.700Z,15.8
2019-02-10T00:40:52.470Z,15.8
2019-02-10T00:41:53.957Z,15.9
2019-02-10T00:42:55.351Z,15.9
2019-02-10T00:43:56.625Z,16
2019-02-10T00:45:02.026Z,16
2019-02-10T00:46:03.441Z,16
2019-02-10T00:47:05.399Z,15.9
2019-02-10T00:48:06.837Z,15.5
2019-02-10T00:49:08.115Z,15.3
2019-02-10T00:50:09.400Z,15.1
2019-02-10T00:51:10.700Z,14.9
2019-02-10T00:52:11.993Z,14.8
2019-02-10T00:53:13.691Z,14.8
2019-02-10T00:54:15.201Z,14.8
2019-02-10T00:55:16.526Z,14.7
2019-02-10T00:56:19.269Z,14.5
2019-02-10T00:57:27.324Z,14.4
2019-02-10T00:58:28.941Z,14.3
2019-02-10T00:59:30.269Z,14.3
2019-02-10T01:00:32.767Z,14.1
2019-02-10T01:01:34.069Z,14.2
2019-02-10T01:02:35.375Z,14.2
2019-02-10T01:03:36.709Z,14.2
2019-02-10T01:04:38.013Z,14.2
2019-02-10T01:05:39.315Z,14.2
2019-02-10T01:06:41.581Z,14.2
2019-02-10T01:07:43.095Z,14.1
2019-02-10T01:08:44.422Z,14.2
2019-02-10T01:09:45.686Z,14.1
2019-02-10T01:10:46.960Z,13.9
2019-02-10T01:11:48.244Z,14
2019-02-10T01:12:49.596Z,14
2019-02-10T01:13:50.908Z,13.8
2019-02-10T01:14:52.234Z,13.9
2019-02-10T01:15:53.526Z,14
2019-02-10T01:16:54.837Z,13.9
2019-02-10T01:17:56.162Z,13.9
2019-02-10T01:18:57.629Z,13.9
2019-02-10T01:20:02.858Z,13.9
2019-02-10T01:21:04.172Z,13.9
2019-02-10T01:22:05.694Z,13.9
2019-02-10T01:23:07.314Z,13.9
2019-02-10T01:24:08.756Z,13.9
2019-02-10T01:25:10.020Z,13.9
2019-02-10T01:26:11.310Z,13.8
2019-02-10T01:27:12.852Z,13.8
2019-02-10T01:28:14.134Z,13.7
2019-02-10T01:29:15.729Z,13.7
2019-02-10T01:30:17.008Z,13.7
2019-02-10T01:31:18.432Z,13.7
2019-02-10T01:32:20.470Z,13.6
2019-02-10T01:33:21.784Z,13.6
2019-02-10T01:34:23.470Z,13.6
2019-02-10T01:35:26.123Z,13.5
2019-02-10T01:36:28.065Z,13.6
2019-02-10T01:37:29.368Z,13.5
2019-02-10T01:38:30.684Z,13.5
2019-02-10T01:39:32.220Z,13.4
2019-02-10T01:40:33.493Z,13.4
2019-02-10T01:41:34.796Z,13.4
2019-02-10T01:42:36.122Z,13.3
2019-02-10T01:43:37.416Z,13.3
2019-02-10T01:44:38.704Z,13.3
2019-02-10T01:45:40.226Z,13.3
2019-02-10T01:46:41.538Z,13.3
2019-02-10T01:47:42.834Z,13.3
2019-02-10T01:48:46.312Z,13.3
2019-02-10T01:49:47.654Z,13.3
2019-02-10T01:50:48.936Z,13.3
2019-02-10T01:51:50.203Z,13.2
2019-02-10T01:52:51.497Z,13.2
2019-02-10T01:53:52.773Z,13.1
2019-02-10T01:54:54.100Z,13.2
2019-02-10T01:55:55.368Z,13.2
2019-02-10T01:56:56.641Z,13.1
2019-02-10T01:57:57.896Z,13.1
2019-02-10T01:58:59.168Z,13
2019-02-10T02:00:00.521Z,12.9
2019-02-10T02:01:01.807Z,12.9
2019-02-10T02:02:03.071Z,12.9
2019-02-10T02:03:04.368Z,12.8
2019-02-10T02:04:05.648Z,12.7
2019-02-10T02:05:06.942Z,12.6
2019-02-10T02:06:10.631Z,12.8
2019-02-10T02:07:11.951Z,12.8
2019-02-10T02:08:13.288Z,12.9
2019-02-10T02:09:14.802Z,12.9
2019-02-10T02:10:16.108Z,12.7
2019-02-10T02:11:17.724Z,12.8
2019-02-10T02:12:19.021Z,12.8
2019-02-10T02:13:20.290Z,12.8
2019-02-10T02:14:21.574Z,12.7
2019-02-10T02:15:23.030Z,12.8
2019-02-10T02:16:24.299Z,12.8
2019-02-10T02:17:25.560Z,12.7
2019-02-10T02:18:26.842Z,12.7
2019-02-10T02:19:28.652Z,12.7
2019-02-10T02:20:29.970Z,12.8
2019-02-10T02:21:33.734Z,12.8
2019-02-10T02:22:35.025Z,12.7
2019-02-10T02:23:36.304Z,12.8
2019-02-10T02:24:37.599Z,12.6
2019-02-10T02:25:38.909Z,12.7
2019-02-10T02:26:40.167Z,12.7
2019-02-10T02:27:41.421Z,12.6
2019-02-10T02:28:42.705Z,12.6
2019-02-10T02:29:43.980Z,12.5
2019-02-10T02:30:45.736Z,12.5
2019-02-10T02:31:47.015Z,12.4
2019-02-10T02:32:48.289Z,12.4
2019-02-10T02:33:49.578Z,12.4
2019-02-10T02:34:50.853Z,12.4
2019-02-10T02:35:52.159Z,12.4
2019-02-10T02:36:53.781Z,12.5
2019-02-10T02:37:55.065Z,12.4
2019-02-10T02:38:56.331Z,12.4
2019-02-10T02:39:57.607Z,12.3
2019-02-10T02:40:58.906Z,12.3
2019-02-10T02:42:00.189Z,12.4
2019-02-10T02:43:01.469Z,12.5
2019-02-10T02:44:02.747Z,12.6
2019-02-10T02:45:04.041Z,12.5
2019-02-10T02:46:05.382Z,12.4
2019-02-10T02:47:06.969Z,12.4
2019-02-10T02:48:08.259Z,12.4
2019-02-10T02:49:09.543Z,12.3
2019-02-10T02:50:10.824Z,12.3
2019-02-10T02:51:12.399Z,12.3
2019-02-10T02:52:13.684Z,12.2
2019-02-10T02:53:14.958Z,12.2
2019-02-10T02:54:16.258Z,12.2
2019-02-10T02:55:17.531Z,12.1
2019-02-10T02:56:18.843Z,12.2
2019-02-10T02:57:20.155Z,12.2
2019-02-10T02:58:21.436Z,12.2
2019-02-10T02:59:22.708Z,12.2
2019-02-10T03:00:24.300Z,12.4
2019-02-10T03:01:25.671Z,12.4
2019-02-10T03:02:26.994Z,12.4
2019-02-10T03:03:28.261Z,12.2
2019-02-10T03:04:29.539Z,12.2
2019-02-10T03:05:30.851Z,12.2
2019-02-10T03:06:34.374Z,12.2
2019-02-10T03:07:35.692Z,12.3
2019-02-10T03:08:39.745Z,12.3
2019-02-10T03:09:41.043Z,12.2
2019-02-10T03:10:42.341Z,12.1
2019-02-10T03:11:43.667Z,12.2
2019-02-10T03:12:44.943Z,12.4
2019-02-10T03:13:46.230Z,12.4
2019-02-10T03:14:48.687Z,12.3
2019-02-10T03:15:50.263Z,12.2
2019-02-10T03:16:51.605Z,12.2
2019-02-10T03:17:52.896Z,12.3
2019-02-10T03:18:54.195Z,12.2
2019-02-10T03:19:55.508Z,12.2
2019-02-10T03:20:56.853Z,12.3
2019-02-10T03:21:58.180Z,12.2
2019-02-10T03:22:59.466Z,12.2
2019-02-10T03:24:00.768Z,12.2
2019-02-10T03:25:02.051Z,12.3
2019-02-10T03:26:03.335Z,12.2
2019-02-10T03:27:04.674Z,12.2
2019-02-10T03:28:06.009Z,12.2
2019-02-10T03:29:07.321Z,12.4
2019-02-10T03:30:08.589Z,12.4
2019-02-10T03:31:09.894Z,12.4
2019-02-10T03:32:11.239Z,12.4
2019-02-10T03:33:12.898Z,12.4
2019-02-10T03:34:14.162Z,12.4
2019-02-10T03:35:15.430Z,12.5
2019-02-10T03:36:16.693Z,12.4
2019-02-10T03:37:26.619Z,12.2
2019-02-10T03:38:28.465Z,12.4
2019-02-10T03:39:30.149Z,12.3
2019-02-10T03:40:31.415Z,12.3
2019-02-10T03:41:32.689Z,12.2
2019-02-10T03:42:34.025Z,12.2
2019-02-10T03:43:35.292Z,12.2
2019-02-10T03:44:36.567Z,12.2
2019-02-10T03:45:37.841Z,12.5
2019-02-10T03:46:39.129Z,12.4
2019-02-10T03:47:40.463Z,12.2
2019-02-10T03:48:41.776Z,12.2
2019-02-10T03:49:43.079Z,12.2
2019-02-10T03:50:44.347Z,12.2
2019-02-10T03:51:45.611Z,12.1
2019-02-10T03:52:46.929Z,12.1
2019-02-10T03:53:48.227Z,12.1
2019-02-10T03:54:49.767Z,12
2019-02-10T03:55:51.073Z,12.1
2019-02-10T03:56:52.349Z,12.1
2019-02-10T03:57:55.869Z,12.2
2019-02-10T03:58:57.129Z,12.1
2019-02-10T03:59:58.399Z,12.1
2019-02-10T04:00:59.707Z,12.2
2019-02-10T04:02:00.997Z,12.1
2019-02-10T04:03:02.322Z,12.1
2019-02-10T04:04:03.626Z,12.1
2019-02-10T04:05:04.905Z,12
2019-02-10T04:06:06.202Z,12
2019-02-10T04:07:07.493Z,11.9
2019-02-10T04:08:08.802Z,12.1
2019-02-10T04:09:10.077Z,12.1
2019-02-10T04:10:11.348Z,12
2019-02-10T04:11:12.622Z,12
2019-02-10T04:12:13.899Z,12
2019-02-10T04:13:15.213Z,12
2019-02-10T04:14:16.501Z,12.1
2019-02-10T04:15:17.781Z,12
2019-02-10T04:16:19.064Z,12
2019-02-10T04:17:20.692Z,12.1
2019-02-10T04:18:22.028Z,12.2
2019-02-10T04:19:23.608Z,12.2
2019-02-10T04:20:24.877Z,12.2
2019-02-10T04:21:26.146Z,12.1
2019-02-10T04:22:27.430Z,12.1
2019-02-10T04:23:28.718Z,12
2019-02-10T04:24:29.987Z,11.9
2019-02-10T04:25:31.284Z,12
2019-02-10T04:26:32.560Z,12
2019-02-10T04:27:33.826Z,12
2019-02-10T04:28:35.450Z,12
2019-02-10T04:29:36.788Z,12
2019-02-10T04:30:38.080Z,12
2019-02-10T04:31:39.357Z,12
2019-02-10T04:32:40.608Z,12.1
2019-02-10T04:33:42.180Z,11.9
2019-02-10T04:34:43.652Z,12
2019-02-10T04:35:44.925Z,12
2019-02-10T04:36:46.193Z,12
2019-02-10T04:37:47.456Z,12
2019-02-10T04:38:48.794Z,12
2019-02-10T04:39:50.097Z,12
2019-02-10T04:40:51.372Z,11.8
2019-02-10T04:41:52.648Z,11.8
2019-02-10T04:42:53.959Z,11.8
2019-02-10T04:43:55.360Z,11.8
2019-02-10T04:44:56.663Z,11.8
2019-02-10T04:45:57.976Z,11.8
2019-02-10T04:46:59.310Z,11.9
2019-02-10T04:48:00.601Z,12
2019-02-10T04:49:01.953Z,12
2019-02-10T04:50:03.278Z,12.1
2019-02-10T04:51:04.586Z,12
2019-02-10T04:52:05.904Z,12.1
2019-02-10T04:53:07.192Z,11.9
2019-02-10T04:54:08.529Z,11.8
2019-02-10T04:55:09.811Z,11.7
2019-02-10T04:56:11.084Z,11.8
2019-02-10T04:57:12.385Z,11.8
2019-02-10T04:58:13.644Z,12
2019-02-10T04:59:14.965Z,12
2019-02-10T05:00:16.232Z,12
2019-02-10T05:01:17.521Z,12
2019-02-10T05:02:21.142Z,12
2019-02-10T05:03:22.424Z,12
2019-02-10T05:04:23.758Z,12.1
2019-02-10T05:05:25.027Z,12.1
2019-02-10T05:06:26.317Z,12.2
2019-02-10T05:07:29.576Z,12.1
2019-02-10T05:08:30.858Z,12
2019-02-10T05:09:32.246Z,12
2019-02-10T05:10:33.530Z,12
2019-02-10T05:11:34.811Z,12
2019-02-10T05:12:36.106Z,12.1
2019-02-10T05:13:37.412Z,12
2019-02-10T05:14:38.741Z,11.9
2019-02-10T05:15:40.042Z,12
2019-02-10T05:16:41.323Z,12
2019-02-10T05:17:42.626Z,11.9
2019-02-10T05:18:43.900Z,11.9
2019-02-10T05:19:45.234Z,11.9
2019-02-10T05:20:46.899Z,12.1
2019-02-10T05:21:48.204Z,12
2019-02-10T05:22:49.493Z,12
2019-02-10T05:23:50.772Z,12.1
2019-02-10T05:24:52.108Z,12.1
2019-02-10T05:25:53.386Z,12.1
2019-02-10T05:26:54.676Z,12.2
2019-02-10T05:27:55.962Z,12
2019-02-10T05:28:57.240Z,12
2019-02-10T05:29:58.567Z,11.9
2019-02-10T05:30:59.858Z,11.8
2019-02-10T05:32:01.214Z,11.9
2019-02-10T05:33:02.834Z,11.8
2019-02-10T05:34:04.498Z,11.7
2019-02-10T05:35:06.104Z,11.8
2019-02-10T05:36:07.394Z,12
2019-02-10T05:37:08.673Z,12
2019-02-10T05:38:09.963Z,12
2019-02-10T05:39:11.235Z,11.9
2019-02-10T05:40:12.544Z,11.9
2019-02-10T05:41:13.826Z,11.8
2019-02-10T05:42:15.148Z,11.7
2019-02-10T05:43:16.453Z,11.8
2019-02-10T05:44:17.727Z,11.7
2019-02-10T05:45:19.046Z,11.8
2019-02-10T05:46:20.362Z,11.9
2019-02-10T05:47:21.644Z,11.8
2019-02-10T05:48:22.907Z,11.8
2019-02-10T05:49:24.565Z,11.8
2019-02-10T05:50:25.904Z,11.7
2019-02-10T05:51:27.206Z,11.8
2019-02-10T05:52:28.626Z,11.8
2019-02-10T05:53:29.893Z,11.6
2019-02-10T05:54:31.196Z,11.7
2019-02-10T05:55:32.546Z,11.7
2019-02-10T05:56:33.829Z,11.7
2019-02-10T05:57:35.128Z,11.7
2019-02-10T05:58:36.409Z,11.7
2019-02-10T05:59:37.712Z,11.6
2019-02-10T06:00:39.028Z,11.6
2019-02-10T06:01:40.318Z,11.6
2019-02-10T06:02:41.625Z,11.6
2019-02-10T06:03:43.190Z,11.6
2019-02-10T06:04:44.772Z,11.6
2019-02-10T06:05:46.120Z,11.4
2019-02-10T06:06:47.401Z,11.5
2019-02-10T06:07:48.668Z,11.6
2019-02-10T06:08:49.956Z,11.7
2019-02-10T06:09:51.315Z,11.7
2019-02-10T06:10:52.642Z,11.7
2019-02-10T06:11:53.940Z,11.7
2019-02-10T06:12:55.252Z,11.7
2019-02-10T06:13:56.542Z,11.8
2019-02-10T06:14:57.824Z,12
2019-02-10T06:15:59.145Z,12
2019-02-10T06:17:00.971Z,11.9
2019-02-10T06:18:02.296Z,11.8
2019-02-10T06:19:03.601Z,11.8
2019-02-10T06:20:04.878Z,11.6
2019-02-10T06:21:06.214Z,11.7
2019-02-10T06:22:07.494Z,11.6
2019-02-10T06:23:08.827Z,11.5
2019-02-10T06:24:10.119Z,11.6
2019-02-10T06:25:11.406Z,11.7
2019-02-10T06:26:12.734Z,11.7
2019-02-10T06:27:14.007Z,11.7
2019-02-10T06:28:15.283Z,11.7
2019-02-10T06:29:19.706Z,11.8
2019-02-10T06:30:21.337Z,11.7
2019-02-10T06:31:22.662Z,11.7
2019-02-10T06:32:23.947Z,11.7
2019-02-10T06:33:25.242Z,11.7
2019-02-10T06:34:26.520Z,11.8
2019-02-10T06:35:27.821Z,11.7
2019-02-10T06:36:29.323Z,11.7
2019-02-10T06:37:30.620Z,11.7
2019-02-10T06:38:31.922Z,11.7
2019-02-10T06:39:33.195Z,11.8
2019-02-10T06:40:34.545Z,11.7
2019-02-10T06:41:35.881Z,11.7
2019-02-10T06:42:37.173Z,11.9
2019-02-10T06:43:38.470Z,11.7
2019-02-10T06:44:39.965Z,11.7
2019-02-10T06:45:41.237Z,11.7
2019-02-10T06:46:42.551Z,11.9
2019-02-10T06:47:43.975Z,11.8
2019-02-10T06:48:45.229Z,11.8
2019-02-10T06:49:47.723Z,11.6
2019-02-10T06:50:49.027Z,11.7
2019-02-10T06:51:50.357Z,11.8
2019-02-10T06:52:51.662Z,11.7
2019-02-10T06:53:52.941Z,11.7
2019-02-10T06:54:54.271Z,11.6
2019-02-10T06:55:55.587Z,11.8
2019-02-10T06:56:56.913Z,11.7
2019-02-10T06:57:58.205Z,11.9
2019-02-10T06:58:59.475Z,11.9
2019-02-10T07:00:00.755Z,11.8
2019-02-10T07:01:02.047Z,11.8
2019-02-10T07:02:03.426Z,11.6
2019-02-10T07:03:04.693Z,11.7
2019-02-10T07:04:05.967Z,11.8
2019-02-10T07:05:07.245Z,11.7
2019-02-10T07:06:08.531Z,11.6
2019-02-10T07:07:09.983Z,11.8
2019-02-10T07:08:11.257Z,11.8
2019-02-10T07:09:12.543Z,11.9
2019-02-10T07:10:14.691Z,11.8
2019-02-10T07:11:15.987Z,11.9
2019-02-10T07:12:17.308Z,11.8
2019-02-10T07:13:18.581Z,11.9
2019-02-10T07:14:19.860Z,11.8
2019-02-10T07:15:23.613Z,11.9
2019-02-10T07:16:24.957Z,11.7
2019-02-10T07:17:26.307Z,11.7
2019-02-10T07:18:27.585Z,11.7
2019-02-10T07:19:28.854Z,11.9
2019-02-10T07:20:30.115Z,11.9
2019-02-10T07:21:31.409Z,11.9
2019-02-10T07:22:32.753Z,12
2019-02-10T07:23:36.459Z,11.9
2019-02-10T07:24:37.990Z,12
2019-02-10T07:25:39.290Z,11.9
2019-02-10T07:26:40.569Z,12
2019-02-10T07:27:41.937Z,12
2019-02-10T07:28:45.677Z,12
2019-02-10T07:29:46.941Z,11.9
2019-02-10T07:30:48.239Z,11.8
2019-02-10T07:31:49.518Z,11.9
2019-02-10T07:32:50.845Z,11.9
2019-02-10T07:33:54.385Z,11.9
2019-02-10T07:34:55.707Z,12
2019-02-10T07:35:57.033Z,12
2019-02-10T07:36:58.652Z,12
2019-02-10T07:38:02.261Z,11.9
2019-02-10T07:39:03.635Z,11.8
2019-02-10T07:40:05.285Z,11.8
2019-02-10T07:41:06.595Z,11.9
2019-02-10T07:42:07.845Z,11.9
2019-02-10T07:43:09.166Z,11.8
2019-02-10T07:44:10.453Z,11.8
2019-02-10T07:45:11.745Z,11.8
2019-02-10T07:46:13.030Z,11.8
2019-02-10T07:47:14.293Z,11.8
2019-02-10T07:48:15.641Z,11.9
2019-02-10T07:49:17.222Z,11.9
2019-02-10T07:50:18.502Z,12
2019-02-10T07:51:19.800Z,12.1
2019-02-10T07:52:21.109Z,12.1
2019-02-10T07:53:22.549Z,12.1
2019-02-10T07:54:23.849Z,12
2019-02-10T07:55:25.134Z,11.9
2019-02-10T07:56:26.518Z,12
2019-02-10T07:57:29.524Z,12
2019-02-10T07:58:31.085Z,12
2019-02-10T07:59:32.377Z,12
2019-02-10T08:00:33.893Z,12.1
2019-02-10T08:01:35.662Z,12.1
2019-02-10T08:02:36.958Z,12.2
2019-02-10T08:03:38.268Z,12.1
2019-02-10T08:04:39.563Z,12
2019-02-10T08:05:46.294Z,12.1
2019-02-10T08:06:47.583Z,12
2019-02-10T08:07:48.860Z,12
2019-02-10T08:08:50.225Z,12.2
2019-02-10T08:09:51.514Z,12.1
2019-02-10T08:10:52.832Z,12.1
2019-02-10T08:11:54.126Z,12.1
2019-02-10T08:12:55.402Z,11.9
2019-02-10T08:13:56.699Z,12.1
2019-02-10T08:14:58.232Z,12.2
2019-02-10T08:15:59.526Z,12
2019-02-10T08:17:00.920Z,12.1
2019-02-10T08:18:02.199Z,12.1
2019-02-10T08:19:03.555Z,12.1
2019-02-10T08:20:04.816Z,12.1
2019-02-10T08:21:06.134Z,12
2019-02-10T08:22:07.408Z,12
2019-02-10T08:23:09.031Z,12
2019-02-10T08:24:10.408Z,11.9
2019-02-10T08:25:17.337Z,12
2019-02-10T08:26:21.257Z,12.1
2019-02-10T08:27:22.532Z,12.2
2019-02-10T08:28:23.828Z,12.2
2019-02-10T08:29:25.148Z,12.1
2019-02-10T08:30:29.336Z,12
2019-02-10T08:31:30.654Z,12
2019-02-10T08:32:31.969Z,12.1
2019-02-10T08:33:33.250Z,12.2
2019-02-10T08:34:34.582Z,12.3
2019-02-10T08:35:35.885Z,12.2
2019-02-10T08:36:37.188Z,12.2
2019-02-10T08:37:38.684Z,12.3
2019-02-10T08:38:39.967Z,12.3
2019-02-10T08:39:41.617Z,12.3
2019-02-10T08:40:43.823Z,12.2
2019-02-10T08:41:45.232Z,12.3
2019-02-10T08:42:48.604Z,12.2
2019-02-10T08:43:50.240Z,12.2
2019-02-10T08:44:51.650Z,12.3
2019-02-10T08:45:52.947Z,12.1
2019-02-10T08:46:56.642Z,12.2
2019-02-10T08:47:58.152Z,12.1
2019-02-10T08:48:59.426Z,12.1
2019-02-10T08:50:08.951Z,12.2
2019-02-10T08:51:10.240Z,12.2
2019-02-10T08:52:11.543Z,12.2
2019-02-10T08:53:12.983Z,12.3
2019-02-10T08:54:14.312Z,12.3
2019-02-10T08:55:16.000Z,12.3
2019-02-10T08:56:17.299Z,12.3
2019-02-10T08:57:19.210Z,12.3
2019-02-10T08:58:25.665Z,12.3
2019-02-10T08:59:28.174Z,12.3
2019-02-10T09:00:29.626Z,12.2
2019-02-10T09:01:31.317Z,12.3
2019-02-10T09:02:32.635Z,12.3
2019-02-10T09:03:33.916Z,12.3
2019-02-10T09:04:35.218Z,12.3
2019-02-10T09:05:36.537Z,12.4
2019-02-10T09:06:40.878Z,12.3
2019-02-10T09:07:42.803Z,12.3
2019-02-10T09:08:44.384Z,12.3
2019-02-10T09:09:45.651Z,12.3
2019-02-10T09:10:47.165Z,12.2
2019-02-10T09:11:51.368Z,12.2
2019-02-10T09:12:54.948Z,12.3
2019-02-10T09:13:56.297Z,12.3
2019-02-10T09:14:57.794Z,12.3
2019-02-10T09:15:59.115Z,12.3
2019-02-10T09:17:00.437Z,12.4
2019-02-10T09:18:01.756Z,12.4
2019-02-10T09:19:06.069Z,12.4
2019-02-10T09:20:07.721Z,12.3
2019-02-10T09:21:18.228Z,12.4
2019-02-10T09:22:19.564Z,12.4
2019-02-10T09:23:22.122Z,12.4
2019-02-10T09:24:23.407Z,12.3
2019-02-10T09:25:24.959Z,12.4
2019-02-10T09:26:26.312Z,12.4
2019-02-10T09:27:28.113Z,12.4
2019-02-10T09:28:29.761Z,12.4
2019-02-10T09:29:31.043Z,12.5
2019-02-10T09:30:32.335Z,12.4
2019-02-10T09:31:41.136Z,12.5
2019-02-10T09:33:09.065Z,12.4
2019-02-10T09:35:36.429Z,12.2
2019-02-10T09:36:42.119Z,12.2
2019-02-10T09:37:43.403Z,12.4
2019-02-10T09:38:44.713Z,12.3
2019-02-10T09:39:46.018Z,12.4
2019-02-10T09:40:47.555Z,12.4
2019-02-10T09:41:49.325Z,12.5
2019-02-10T09:42:50.659Z,12.4
2019-02-10T09:43:51.969Z,12.6
2019-02-10T09:44:53.268Z,12.6
2019-02-10T09:45:54.566Z,12.7
2019-02-10T09:46:55.892Z,12.9
2019-02-10T09:47:57.219Z,13.3
2019-02-10T09:48:58.487Z,13.3
2019-02-10T09:49:59.783Z,13.5
2019-02-10T09:51:01.065Z,13.7
2019-02-10T09:52:02.394Z,13.9
2019-02-10T09:53:03.674Z,14.1
2019-02-10T09:54:04.958Z,14.1
2019-02-10T09:55:06.243Z,14.2
2019-02-10T09:56:07.655Z,14.2
2019-02-10T09:57:08.967Z,14.2
2019-02-10T09:58:10.272Z,14.3
2019-02-10T09:59:11.553Z,14.5
2019-02-10T10:00:12.835Z,14.5
2019-02-10T10:01:14.760Z,14.6
2019-02-10T10:02:16.241Z,14.6
2019-02-10T10:03:17.522Z,14.7
2019-02-10T10:04:19.271Z,14.7
2019-02-10T10:05:21.931Z,14.7
2019-02-10T10:06:23.310Z,14.6
2019-02-10T10:07:24.651Z,14.8
2019-02-10T10:08:29.667Z,14.9
2019-02-10T10:09:30.932Z,15
2019-02-10T10:10:32.301Z,14.9
2019-02-10T10:11:33.633Z,14.9
2019-02-10T10:12:34.965Z,14.9
2019-02-10T10:13:38.693Z,14.9
2019-02-10T10:14:40.012Z,14.8
2019-02-10T10:15:41.260Z,14.8
2019-02-10T10:16:42.570Z,14.9
2019-02-10T10:17:43.925Z,15.1
2019-02-10T10:18:45.297Z,15
2019-02-10T10:19:49.659Z,15.1
2019-02-10T10:20:50.994Z,15.1
2019-02-10T10:21:52.287Z,14.9
2019-02-10T10:22:53.607Z,15
2019-02-10T10:23:54.880Z,15.1
2019-02-10T10:24:56.759Z,15.3
2019-02-10T10:25:58.426Z,15.2
2019-02-10T10:26:59.731Z,15.2
2019-02-10T10:28:01.291Z,15.3
2019-02-10T10:29:02.619Z,15.2
2019-02-10T10:30:03.907Z,15.2
2019-02-10T10:31:07.403Z,15.2
2019-02-10T10:32:08.739Z,15.3
2019-02-10T10:33:10.948Z,15.1
2019-02-10T10:34:12.263Z,15.1
2019-02-10T10:35:14.539Z,15.3
2019-02-10T10:36:16.179Z,15.2
2019-02-10T10:37:17.708Z,15.3
2019-02-10T10:38:20.339Z,15.3
2019-02-10T10:39:27.322Z,15.3
2019-02-10T10:40:29.343Z,15.3
2019-02-10T10:41:30.625Z,15.4
2019-02-10T10:42:31.913Z,15.5
2019-02-10T10:43:33.259Z,15.5
2019-02-10T10:44:34.560Z,15.5
2019-02-10T10:45:35.843Z,15.6
2019-02-10T10:46:37.149Z,15.5
2019-02-10T10:47:38.467Z,15.5
2019-02-10T10:48:42.158Z,15.6
2019-02-10T10:49:43.485Z,15.6
2019-02-10T10:50:45.005Z,15.5
2019-02-10T10:51:47.203Z,15.5
2019-02-10T10:52:48.746Z,15.5
2019-02-10T10:53:50.297Z,15.5
2019-02-10T10:54:51.638Z,15.6
2019-02-10T10:55:52.940Z,15.6
2019-02-10T10:56:54.223Z,15.6
2019-02-10T10:57:55.533Z,15.7
2019-02-10T10:58:56.911Z,15.7
2019-02-10T10:59:58.213Z,15.6
2019-02-10T11:00:59.497Z,15.6
2019-02-10T11:02:02.893Z,15.6
2019-02-10T11:03:04.183Z,15.6
2019-02-10T11:04:05.832Z,15.7
2019-02-10T11:05:07.290Z,15.8
2019-02-10T11:06:08.572Z,15.7
2019-02-10T11:08:21.592Z,15.8
2019-02-10T11:09:23.133Z,15.8
2019-02-10T11:10:36.518Z,15.8
2019-02-10T11:11:37.791Z,15.9
2019-02-10T11:12:41.684Z,16
2019-02-10T11:13:42.988Z,15.9
2019-02-10T11:14:44.262Z,15.9
2019-02-10T11:15:45.524Z,16
2019-02-10T11:16:46.819Z,15.9
2019-02-10T11:17:51.178Z,16
2019-02-10T11:18:52.609Z,16
2019-02-10T11:19:53.942Z,16
2019-02-10T11:20:55.237Z,16
2019-02-10T11:21:56.601Z,16
2019-02-10T11:22:57.848Z,16
2019-02-10T11:23:59.119Z,16
2019-02-10T11:25:00.408Z,16
2019-02-10T11:26:01.664Z,16.1
2019-02-10T11:27:02.900Z,16.1
2019-02-10T11:28:04.159Z,16.1
2019-02-10T11:29:05.428Z,16.1
2019-02-10T11:30:06.726Z,16.1
2019-02-10T11:31:13.654Z,16.1
2019-02-10T11:32:15.169Z,16.1
2019-02-10T11:33:16.408Z,16.2
2019-02-10T11:34:17.684Z,16.2
2019-02-10T11:35:18.983Z,16.2
2019-02-10T11:36:20.277Z,16.2
2019-02-10T11:37:26.672Z,16.2
2019-02-10T11:38:28.400Z,16.3
2019-02-10T11:39:29.657Z,16.3
2019-02-10T11:40:30.971Z,16.3
2019-02-10T11:41:32.244Z,16.4
2019-02-10T11:42:33.610Z,16.3
2019-02-10T11:43:34.897Z,16.3
2019-02-10T11:44:36.296Z,16.4
2019-02-10T11:45:37.748Z,16.4
2019-02-10T11:46:40.336Z,16.3
2019-02-10T11:47:44.676Z,16.3
2019-02-10T11:48:45.926Z,16.3
2019-02-10T11:49:47.204Z,16.3
2019-02-10T11:50:51.634Z,16.3
2019-02-10T11:51:52.940Z,16.4
2019-02-10T11:52:54.238Z,16.3
2019-02-10T11:53:57.240Z,16.4
2019-02-10T11:54:58.628Z,16.4
2019-02-10T11:55:59.925Z,16.4
2019-02-10T11:57:01.353Z,16.4
2019-02-10T11:58:04.353Z,16.3
2019-02-10T11:59:05.876Z,16.5
2019-02-10T12:00:07.135Z,16.5
2019-02-10T12:01:08.424Z,16.4
2019-02-10T12:02:09.694Z,16.4
2019-02-10T12:03:10.974Z,16.4
2019-02-10T12:04:14.736Z,16.4
2019-02-10T12:05:18.668Z,16.4
2019-02-10T12:06:27.306Z,16.5
2019-02-10T12:07:29.206Z,16.5
2019-02-10T12:08:35.518Z,16.5
2019-02-10T12:09:37.138Z,16.5
2019-02-10T12:10:38.780Z,16.5
2019-02-10T12:11:40.080Z,16.5
2019-02-10T12:12:41.372Z,16.5
2019-02-10T12:13:42.858Z,16.5
2019-02-10T12:14:46.817Z,16.5
2019-02-10T12:15:48.637Z,16.5
2019-02-10T12:16:50.202Z,16.5
2019-02-10T12:17:51.470Z,16.6
2019-02-10T12:18:57.002Z,16.7
2019-02-10T12:20:00.782Z,16.7
2019-02-10T12:21:04.932Z,16.7
2019-02-10T12:22:06.320Z,16.6
2019-02-10T12:23:16.684Z,16.7
2019-02-10T12:24:17.971Z,16.7
2019-02-10T12:25:19.241Z,16.6
2019-02-10T12:26:20.798Z,16.5
2019-02-10T12:27:22.160Z,16.6
2019-02-10T12:28:23.903Z,16.7
2019-02-10T12:29:25.766Z,16.7
2019-02-10T12:30:27.110Z,16.7
2019-02-10T12:31:28.436Z,16.6
2019-02-10T12:32:29.759Z,16.7
2019-02-10T12:33:33.676Z,16.7
2019-02-10T12:34:38.695Z,16.8
2019-02-10T12:35:40.632Z,16.8
2019-02-10T12:36:44.780Z,16.7
2019-02-10T12:37:46.134Z,16.7
2019-02-10T12:38:47.780Z,16.7
2019-02-10T12:39:49.469Z,16.8
2019-02-10T12:40:50.820Z,16.7
2019-02-10T12:41:52.342Z,16.6
2019-02-10T12:42:53.624Z,16.7
2019-02-10T12:43:54.895Z,16.6
2019-02-10T12:44:56.256Z,16.7
2019-02-10T12:45:57.941Z,16.7
2019-02-10T12:46:59.242Z,16.8
2019-02-10T12:48:02.911Z,16.7
2019-02-10T12:49:04.229Z,16.9
2019-02-10T12:50:05.688Z,16.8
2019-02-10T12:51:07.001Z,16.8
2019-02-10T12:52:09.074Z,16.8
2019-02-10T12:53:14.799Z,16.7
2019-02-10T12:54:17.071Z,16.8
2019-02-10T12:55:18.559Z,16.7
2019-02-10T12:56:23.015Z,16.7
2019-02-10T12:57:25.040Z,16.8
2019-02-10T12:58:26.409Z,16.8
2019-02-10T12:59:27.695Z,16.7
2019-02-10T13:00:29.219Z,16.7
2019-02-10T13:01:30.756Z,16.7
2019-02-10T13:02:32.562Z,16.8
2019-02-10T13:03:37.123Z,16.8
2019-02-10T13:04:38.366Z,16.8
2019-02-10T13:05:41.594Z,16.8
2019-02-10T13:06:47.154Z,16.8
2019-02-10T13:07:51.919Z,16.8
2019-02-10T13:08:53.294Z,16.8
2019-02-10T13:09:54.831Z,16.8
2019-02-10T13:10:56.239Z,16.8
2019-02-10T13:12:00.803Z,16.8
2019-02-10T13:13:04.365Z,16.9
2019-02-10T13:14:05.699Z,16.9
2019-02-10T13:15:07.565Z,16.9
2019-02-10T13:16:09.389Z,16.9
2019-02-10T13:17:10.660Z,17
2019-02-10T13:18:13.426Z,16.9
2019-02-10T13:19:14.872Z,16.9
2019-02-10T13:20:16.158Z,16.9
2019-02-10T13:21:17.638Z,16.9
2019-02-10T13:22:23.252Z,16.9
2019-02-10T13:23:24.985Z,16.9
2019-02-10T13:24:26.305Z,16.9
2019-02-10T13:25:27.613Z,16.9
2019-02-10T13:27:44.643Z,17
2019-02-10T13:28:53.245Z,17
2019-02-10T13:29:55.806Z,17
2019-02-10T13:30:57.596Z,17
2019-02-10T13:32:01.398Z,17
2019-02-10T13:33:02.769Z,17
2019-02-10T13:34:07.218Z,17
2019-02-10T13:35:13.291Z,17
2019-02-10T13:36:14.655Z,17
2019-02-10T13:37:16.159Z,17
2019-02-10T13:38:18.347Z,17
2019-02-10T13:39:22.631Z,16.9
2019-02-10T13:40:25.329Z,17
2019-02-10T13:41:26.787Z,17
2019-02-10T13:42:28.062Z,17
2019-02-10T13:43:33.451Z,17
2019-02-10T13:44:37.227Z,17
2019-02-10T13:45:38.771Z,17
2019-02-10T13:46:45.477Z,17.1
2019-02-10T13:47:48.435Z,17.1
2019-02-10T13:48:52.626Z,17
2019-02-10T13:49:56.487Z,17
2019-02-10T13:51:01.828Z,17
2019-02-10T13:52:05.558Z,17
2019-02-10T13:53:06.801Z,17
2019-02-10T13:54:09.774Z,17
2019-02-10T13:55:11.290Z,17